createdAt,value
2023-04-15T00:00:01.036Z,5.6
2023-04-15T00:02:01.080Z,5.7
2023-04-15T00:04:01.046Z,5.6
2023-04-15T00:06:01.041Z,5.5
2023-04-15T00:10:00.923Z,5.5
2023-04-15T00:11:00.941Z,5.6
2023-04-15T00:13:00.987Z,5.5
2023-04-15T00:16:01.005Z,5.5
2023-04-15T00:17:01.019Z,5.6
2023-04-15T00:20:00.978Z,5.6
2023-04-15T00:22:00.978Z,5.5
2023-04-15T00:23:00.998Z,5.7
2023-04-15T00:25:00.989Z,5.6
2023-04-15T00:27:00.929Z,5.7
2023-04-15T00:28:00.967Z,5.6
2023-04-15T00:30:01.126Z,5.6
2023-04-15T00:32:00.916Z,5.6
2023-04-15T00:33:00.999Z,5.7
2023-04-15T00:35:00.996Z,5.7
2023-04-15T00:39:01.114Z,5.7
2023-04-15T00:41:00.959Z,5.6
2023-04-15T00:42:00.958Z,5.5
2023-04-15T00:43:01.000Z,5.6
2023-04-15T00:45:00.977Z,5.6
2023-04-15T00:47:00.960Z,5.6
2023-04-15T00:50:00.917Z,5.6
2023-04-15T00:53:00.937Z,5.5
2023-04-15T00:54:01.107Z,5.6
2023-04-15T00:56:00.953Z,5.5
2023-04-15T00:58:00.960Z,5.6
2023-04-15T01:02:00.986Z,5.4
2023-04-15T01:03:01.044Z,5.5
2023-04-15T01:07:00.986Z,5.6
2023-04-15T01:09:01.128Z,5.5
2023-04-15T01:11:00.941Z,5.7
2023-04-15T01:22:00.937Z,5.5
2023-04-15T01:23:00.927Z,5.7
2023-04-15T01:24:00.940Z,5.6
2023-04-15T01:25:00.945Z,5.7
2023-04-15T01:27:01.086Z,5.6
2023-04-15T01:29:01.144Z,5.7
2023-04-15T01:31:00.976Z,5.6
2023-04-15T01:33:00.944Z,5.6
2023-04-15T01:38:00.927Z,5.6
2023-04-15T01:39:01.155Z,5.5
2023-04-15T01:41:00.927Z,5.6
2023-04-15T01:44:00.916Z,5.6
2023-04-15T01:45:01.038Z,5.7
2023-04-15T01:47:01.035Z,5.6
2023-04-15T01:49:01.161Z,5.5
2023-04-15T01:51:00.965Z,5.5
2023-04-15T01:52:00.984Z,5.6
2023-04-15T01:53:00.977Z,5.4
2023-04-15T01:54:01.085Z,5.5
2023-04-15T01:55:00.976Z,5.6
2023-04-15T01:58:00.947Z,5.4
2023-04-15T01:59:01.083Z,5.5
2023-04-15T02:01:01.024Z,5.4
2023-04-15T02:02:01.061Z,5.6
2023-04-15T02:04:00.983Z,5.4
2023-04-15T02:05:00.936Z,5.5
2023-04-15T02:11:00.958Z,5.6
2023-04-15T02:13:01.010Z,5.7
2023-04-15T02:19:01.144Z,5.5
2023-04-15T02:20:00.989Z,5.6
2023-04-15T02:25:00.984Z,5.7
2023-04-15T02:28:00.993Z,5.5
2023-04-15T02:30:00.993Z,5.7
2023-04-15T02:31:01.006Z,5.8
2023-04-15T02:37:00.947Z,5.5
2023-04-15T02:39:01.350Z,5.5
2023-04-15T02:41:00.943Z,5.5
2023-04-15T02:45:00.987Z,5.4
2023-04-15T02:47:00.944Z,5.5
2023-04-15T02:49:01.076Z,5.6
2023-04-15T02:53:01.041Z,5.5
2023-04-15T02:55:00.932Z,5.4
2023-04-15T02:56:00.968Z,5.5
2023-04-15T02:58:00.990Z,5.6
2023-04-15T02:59:01.190Z,5.5
2023-04-15T03:02:01.206Z,5.4
2023-04-15T03:04:01.193Z,5.6
2023-04-15T03:06:00.917Z,5.4
2023-04-15T03:08:01.005Z,5.5
2023-04-15T03:11:00.983Z,5.5
2023-04-15T03:13:00.952Z,5.4
2023-04-15T03:18:01.023Z,5.5
2023-04-15T03:22:00.930Z,5.4
2023-04-15T03:24:01.091Z,5.3
2023-04-15T03:26:00.975Z,5.5
2023-04-15T03:28:00.940Z,5.4
2023-04-15T03:35:00.985Z,5.3
2023-04-15T03:37:00.952Z,5.3
2023-04-15T03:39:01.139Z,5.5
2023-04-15T03:40:00.969Z,5.3
2023-04-15T03:42:00.932Z,5.4
2023-04-15T03:44:00.950Z,5.3
2023-04-15T03:45:01.008Z,5.4
2023-04-15T03:48:11.330Z,5.4
2023-04-15T03:50:00.933Z,5.3
2023-04-15T03:52:00.926Z,5.4
2023-04-15T03:54:00.989Z,5.3
2023-04-15T03:56:00.947Z,5.3
2023-04-15T03:57:00.957Z,5.4
2023-04-15T03:58:00.978Z,5.3
2023-04-15T04:03:01.081Z,5.3
2023-04-15T04:05:00.930Z,5.3
2023-04-15T04:06:01.043Z,5.5
2023-04-15T04:10:00.935Z,5.4
2023-04-15T04:14:00.937Z,5.3
2023-04-15T04:15:01.071Z,5.4
2023-04-15T04:20:00.950Z,5.4
2023-04-15T04:21:00.974Z,5.3
2023-04-15T04:23:00.994Z,5.4
2023-04-15T04:27:00.957Z,5.4
2023-04-15T04:29:01.145Z,5.3
2023-04-15T04:31:00.939Z,5.4
2023-04-15T04:32:00.989Z,5.3
2023-04-15T04:34:00.941Z,5.2
2023-04-15T04:35:00.938Z,5.4
2023-04-15T04:36:00.971Z,5.3
2023-04-15T04:42:00.935Z,5.4
2023-04-15T04:44:00.925Z,5.5
2023-04-15T04:45:00.983Z,5.3
2023-04-15T04:49:01.060Z,5.5
2023-04-15T04:52:00.951Z,5.4
2023-04-15T04:53:00.944Z,5.3
2023-04-15T04:54:03.055Z,5.4
2023-04-15T04:57:00.938Z,5.5
2023-04-15T05:00:00.982Z,5.6
2023-04-15T05:02:01.177Z,5.5
2023-04-15T05:03:01.506Z,5.4
2023-04-15T05:10:01.307Z,5.5
2023-04-15T05:14:01.195Z,5.4
2023-04-15T05:25:01.213Z,5.3
2023-04-15T05:27:01.178Z,5.4
2023-04-15T05:31:01.289Z,5.5
2023-04-15T05:33:01.516Z,5.4
2023-04-15T05:36:01.155Z,5.4
2023-04-15T05:38:01.151Z,5.3
2023-04-15T05:39:01.433Z,5.5
2023-04-15T05:42:01.165Z,5.4
2023-04-15T05:43:01.490Z,5.3
2023-04-15T05:46:01.235Z,5.3
2023-04-15T05:47:01.041Z,5.4
2023-04-15T05:49:01.164Z,5.2
2023-04-15T05:51:01.189Z,5.4
2023-04-15T05:56:00.961Z,5.4
2023-04-15T05:57:01.085Z,5.5
2023-04-15T06:03:01.078Z,5.4
2023-04-15T06:05:01.248Z,5.4
2023-04-15T06:10:00.983Z,5.6
2023-04-15T06:11:01.088Z,5.5
2023-04-15T06:13:01.149Z,5.4
2023-04-15T06:16:00.990Z,5.5
2023-04-15T06:18:01.013Z,5.6
2023-04-15T06:19:01.225Z,5.5
2023-04-15T06:21:01.049Z,5.6
2023-04-15T06:25:01.104Z,5.7
2023-04-15T06:29:01.162Z,5.6
2023-04-15T06:31:01.034Z,5.7
2023-04-15T06:33:01.081Z,5.7
2023-04-15T06:38:00.949Z,5.7
2023-04-15T06:42:01.012Z,5.5
2023-04-15T06:43:01.025Z,5.6
2023-04-15T06:45:01.052Z,5.7
2023-04-15T06:47:01.010Z,5.6
2023-04-15T06:51:01.020Z,5.6
2023-04-15T06:53:01.052Z,5.9
2023-04-15T06:55:01.027Z,5.7
2023-04-15T06:57:01.052Z,5.8
2023-04-15T07:01:01.045Z,5.8
2023-04-15T07:05:01.046Z,5.9
2023-04-15T07:07:01.048Z,6
2023-04-15T07:09:01.444Z,6
2023-04-15T07:12:00.987Z,5.9
2023-04-15T07:13:01.044Z,6
2023-04-15T07:15:01.115Z,6.1
2023-04-15T07:18:00.989Z,6.1
2023-04-15T07:20:00.979Z,6
2023-04-15T07:21:01.063Z,6.2
2023-04-15T07:24:00.986Z,6.2
2023-04-15T07:25:01.182Z,6
2023-04-15T07:28:00.975Z,6
2023-04-15T07:29:01.294Z,6.1
2023-04-15T07:35:01.044Z,6.2
2023-04-15T07:36:01.058Z,6.1
2023-04-15T07:38:00.942Z,6.2
2023-04-15T07:39:01.337Z,6.3
2023-04-15T07:42:00.953Z,6.3
2023-04-15T07:43:01.021Z,6.4
2023-04-15T07:46:01.020Z,6.5
2023-04-15T07:48:01.035Z,6.4
2023-04-15T07:49:01.266Z,6.3
2023-04-15T07:51:01.040Z,6.5
2023-04-15T07:54:00.948Z,6.4
2023-04-15T07:58:00.975Z,6.6
2023-04-15T07:59:01.313Z,6.4
2023-04-15T08:03:01.136Z,6.4
2023-04-15T08:08:00.984Z,6.6
2023-04-15T08:09:01.217Z,6.5
2023-04-15T08:11:01.052Z,6.5
2023-04-15T08:14:00.994Z,6.6
2023-04-15T08:16:01.137Z,6.7
2023-04-15T08:20:00.952Z,6.6
2023-04-15T08:21:01.044Z,6.7
2023-04-15T08:25:01.066Z,6.7
2023-04-15T08:29:01.343Z,6.7
2023-04-15T08:31:01.021Z,6.9
2023-04-15T08:33:01.074Z,6.8
2023-04-15T08:35:01.078Z,6.7
2023-04-15T08:37:01.018Z,6.8
2023-04-15T08:38:01.043Z,6.9
2023-04-15T08:39:01.275Z,6.8
2023-04-15T08:44:00.946Z,7.1
2023-04-15T08:46:00.968Z,7
2023-04-15T08:48:01.008Z,7.1
2023-04-15T08:50:00.938Z,7
2023-04-15T08:52:00.958Z,7.1
2023-04-15T08:53:01.015Z,7.2
2023-04-15T08:55:01.108Z,7.2
2023-04-15T09:00:02.963Z,7.3
2023-04-15T09:01:01.081Z,7.1
2023-04-15T09:03:01.140Z,7.1
2023-04-15T09:05:01.070Z,7.3
2023-04-15T09:06:01.068Z,7.1
2023-04-15T09:07:01.043Z,7.2
2023-04-15T09:10:00.997Z,7.3
2023-04-15T09:11:01.061Z,7.2
2023-04-15T09:14:00.970Z,7.3
2023-04-15T09:15:01.090Z,7.2
2023-04-15T09:18:00.990Z,7.3
2023-04-15T09:19:01.174Z,7.2
2023-04-15T09:22:01.083Z,7.5
2023-04-15T09:26:00.956Z,7.4
2023-04-15T09:28:00.968Z,7.3
2023-04-15T09:29:01.046Z,7.4
2023-04-15T09:31:01.039Z,7.3
2023-04-15T09:35:01.040Z,7.4
2023-04-15T09:38:00.960Z,7.5
2023-04-15T09:39:01.062Z,7.6
2023-04-15T09:41:01.139Z,7.5
2023-04-15T09:45:01.056Z,7.4
2023-04-15T09:47:01.010Z,7.4
2023-04-15T09:49:00.994Z,7.6
2023-04-15T09:51:01.068Z,7.5
2023-04-15T09:53:01.063Z,7.6
2023-04-15T09:55:01.048Z,7.5
2023-04-15T09:57:01.084Z,7.6
2023-04-15T09:59:01.171Z,7.6
2023-04-15T10:01:01.050Z,7.8
2023-04-15T10:03:01.095Z,7.7
2023-04-15T10:05:01.048Z,7.9
2023-04-15T10:06:01.051Z,7.8
2023-04-15T10:08:00.958Z,7.9
2023-04-15T10:09:01.047Z,8
2023-04-15T10:11:01.056Z,7.8
2023-04-15T10:14:01.168Z,7.7
2023-04-15T10:15:01.119Z,7.8
2023-04-15T10:17:01.060Z,7.8
2023-04-15T10:20:00.950Z,7.8
2023-04-15T10:21:01.194Z,7.7
2023-04-15T10:23:01.053Z,7.8
2023-04-15T10:26:00.999Z,7.7
2023-04-15T10:27:01.096Z,7.9
2023-04-15T10:29:01.062Z,7.8
2023-04-15T10:32:00.944Z,8
2023-04-15T10:33:01.078Z,7.9
2023-04-15T10:38:01.186Z,7.8
2023-04-15T10:42:00.930Z,7.9
2023-04-15T10:44:01.171Z,7.8
2023-04-15T10:45:01.188Z,7.9
2023-04-15T10:48:02.953Z,8.1
2023-04-15T10:51:01.022Z,8
2023-04-15T10:53:01.006Z,8.2
2023-04-15T10:55:01.108Z,8.3
2023-04-15T10:57:01.070Z,8.3
2023-04-15T10:59:01.008Z,8.4
2023-04-15T11:00:01.024Z,8.2
2023-04-15T11:04:01.051Z,8.3
2023-04-15T11:05:01.051Z,8.2
2023-04-15T11:07:01.029Z,8.3
2023-04-15T11:11:01.028Z,8.4
2023-04-15T11:14:01.100Z,8.5
2023-04-15T11:16:00.922Z,8.4
2023-04-15T11:17:01.004Z,8.7
2023-04-15T11:19:01.070Z,8.7
2023-04-15T11:23:08.523Z,8.8
2023-04-15T11:25:01.044Z,8.9
2023-04-15T11:27:01.048Z,9
2023-04-15T11:29:01.015Z,8.8
2023-04-15T11:31:01.025Z,8.9
2023-04-15T11:34:01.274Z,8.7
2023-04-15T11:36:00.941Z,8.8
2023-04-15T11:37:01.037Z,8.6
2023-04-15T11:41:00.996Z,8.4
2023-04-15T11:43:01.075Z,8.3
2023-04-15T11:45:01.249Z,8.3
2023-04-15T11:51:01.016Z,8.5
2023-04-15T11:53:01.046Z,8.5
2023-04-15T11:59:01.197Z,8.6
2023-04-15T12:01:01.084Z,8.4
2023-04-15T12:03:01.122Z,8.3
2023-04-15T12:05:01.201Z,8.4
2023-04-15T12:09:01.068Z,8.5
2023-04-15T12:11:01.032Z,8.3
2023-04-15T12:13:01.019Z,8.4
2023-04-15T12:17:01.131Z,8.4
2023-04-15T12:19:01.058Z,8.3
2023-04-15T12:21:01.061Z,8.3
2023-04-15T12:26:00.993Z,8.3
2023-04-15T12:28:00.969Z,8.4
2023-04-15T12:29:01.141Z,8.3
2023-04-15T12:31:01.055Z,8.2
2023-04-15T12:34:00.965Z,8.3
2023-04-15T12:35:01.057Z,8.2
2023-04-15T12:39:01.124Z,8.2
2023-04-15T12:41:01.038Z,8
2023-04-15T12:42:01.144Z,7.9
2023-04-15T12:44:00.978Z,8.2
2023-04-15T12:45:01.125Z,8
2023-04-15T12:47:01.105Z,8.2
2023-04-15T12:49:01.093Z,8.3
2023-04-15T12:51:01.035Z,8.2
2023-04-15T12:53:01.075Z,8.4
2023-04-15T12:55:01.086Z,8.3
2023-04-15T12:57:01.130Z,8.5
2023-04-15T13:01:01.023Z,8.5
2023-04-15T13:03:01.130Z,8.4
2023-04-15T13:06:01.124Z,8.6
2023-04-15T13:07:01.091Z,8.5
2023-04-15T13:09:01.084Z,8.7
2023-04-15T13:14:01.016Z,8.7
2023-04-15T13:18:01.007Z,8.8
2023-04-15T13:19:01.021Z,8.7
2023-04-15T13:21:01.199Z,8.8
2023-04-15T13:23:01.086Z,8.7
2023-04-15T13:25:01.120Z,8.7
2023-04-15T13:27:01.060Z,8.7
2023-04-15T13:29:01.153Z,8.8
2023-04-15T13:31:01.072Z,8.6
2023-04-15T13:32:01.243Z,8.7
2023-04-15T13:34:00.996Z,8.8
2023-04-15T13:35:01.090Z,8.7
2023-04-15T13:37:01.065Z,8.6
2023-04-15T13:39:01.075Z,8.5
2023-04-15T13:41:01.101Z,8.7
2023-04-15T13:43:01.252Z,8.5
2023-04-15T13:45:01.108Z,8.5
2023-04-15T13:49:01.044Z,8.4
2023-04-15T13:50:01.102Z,8.6
2023-04-15T13:52:01.004Z,8.4
2023-04-15T13:53:01.034Z,8.5
2023-04-15T13:57:01.062Z,8.4
2023-04-15T14:00:01.044Z,8.4
2023-04-15T14:01:02.614Z,8.6
2023-04-15T14:04:01.179Z,8.7
2023-04-15T14:05:01.015Z,8.6
2023-04-15T14:07:02.324Z,8.6
2023-04-15T14:09:01.198Z,8.8
2023-04-15T14:11:01.122Z,8.7
2023-04-15T14:14:00.980Z,8.7
2023-04-15T14:15:01.275Z,8.6
2023-04-15T14:19:01.024Z,8.8
2023-04-15T14:21:01.044Z,8.7
2023-04-15T14:23:01.027Z,8.7
2023-04-15T14:25:01.100Z,8.6
2023-04-15T14:27:01.012Z,8.7
2023-04-15T14:30:01.075Z,8.6
2023-04-15T14:31:01.069Z,8.5
2023-04-15T14:33:01.176Z,8.3
2023-04-15T14:36:00.971Z,8.5
2023-04-15T14:37:01.008Z,8.6
2023-04-15T14:39:01.057Z,8.6
2023-04-15T14:41:01.033Z,8.6
2023-04-15T14:43:01.012Z,8.7
2023-04-15T14:46:00.964Z,8.9
2023-04-15T14:47:01.011Z,8.8
2023-04-15T14:49:01.058Z,8.9
2023-04-15T14:51:01.022Z,8.9
2023-04-15T14:55:01.037Z,8.8
2023-04-15T14:57:01.035Z,8.9
2023-04-15T15:00:01.008Z,9
2023-04-15T15:01:01.001Z,8.9
2023-04-15T15:04:00.977Z,9
2023-04-15T15:06:01.060Z,8.9
2023-04-15T15:09:01.140Z,9
2023-04-15T15:12:00.970Z,8.9
2023-04-15T15:13:01.015Z,9
2023-04-15T15:18:00.977Z,8.8
2023-04-15T15:19:01.032Z,8.9
2023-04-15T15:21:01.059Z,8.9
2023-04-15T15:23:01.049Z,8.8
2023-04-15T15:26:01.085Z,8.8
2023-04-15T15:29:01.055Z,8.9
2023-04-15T15:30:01.047Z,8.7
2023-04-15T15:34:00.944Z,8.8
2023-04-15T15:36:00.960Z,8.7
2023-04-15T15:40:00.977Z,8.6
2023-04-15T15:41:01.027Z,8.9
2023-04-15T15:43:01.059Z,8.7
2023-04-15T15:44:01.184Z,8.5
2023-04-15T15:45:01.154Z,8.8
2023-04-15T15:47:01.044Z,8.8
2023-04-15T15:49:01.020Z,8.6
2023-04-15T15:51:01.036Z,8.5
2023-04-15T15:53:01.007Z,8.6
2023-04-15T15:55:01.033Z,8.7
2023-04-15T15:59:01.028Z,8.6
2023-04-15T16:02:01.024Z,8.7
2023-04-15T16:04:01.190Z,8.9
2023-04-15T16:05:01.041Z,8.8
2023-04-15T16:07:01.029Z,8.7
2023-04-15T16:10:01.010Z,8.6
2023-04-15T16:12:01.015Z,8.8
2023-04-15T16:15:01.169Z,8.6
2023-04-15T16:17:01.038Z,8.7
2023-04-15T16:19:01.064Z,8.8
2023-04-15T16:21:01.056Z,8.9
2023-04-15T16:23:01.054Z,8.7
2023-04-15T16:25:01.042Z,8.7
2023-04-15T16:27:01.062Z,8.8
2023-04-15T16:28:08.763Z,8.9
2023-04-15T16:29:01.071Z,9
2023-04-15T16:31:01.034Z,8.9
2023-04-15T16:33:01.040Z,8.9
2023-04-15T16:35:01.019Z,8.9
2023-04-15T16:37:01.081Z,9
2023-04-15T16:40:00.945Z,8.9
2023-04-15T16:41:01.026Z,9
2023-04-15T16:46:01.126Z,9.1
2023-04-15T16:47:01.310Z,9
2023-04-15T16:49:01.057Z,9
2023-04-15T16:53:01.054Z,9.1
2023-04-15T16:55:01.078Z,9
2023-04-15T16:57:01.097Z,9
2023-04-15T16:59:01.071Z,8.9
2023-04-15T17:00:01.091Z,9.1
2023-04-15T17:01:01.123Z,9
2023-04-15T17:03:01.366Z,9.1
2023-04-15T17:06:00.988Z,9.1
2023-04-15T17:08:01.156Z,9
2023-04-15T17:14:01.038Z,8.9
2023-04-15T17:17:01.135Z,8.8
2023-04-15T17:19:01.087Z,8.7
2023-04-15T17:21:01.112Z,8.8
2023-04-15T17:24:00.967Z,8.8
2023-04-15T17:25:01.044Z,8.7
2023-04-15T17:27:02.631Z,8.7
2023-04-15T17:29:01.095Z,8.7
2023-04-15T17:33:01.143Z,8.6
2023-04-15T17:35:01.054Z,8.5
2023-04-15T17:37:01.053Z,8.6
2023-04-15T17:40:00.963Z,8.4
2023-04-15T17:41:01.133Z,8.5
2023-04-15T17:43:01.021Z,8.3
2023-04-15T17:45:01.265Z,8.3
2023-04-15T17:49:01.076Z,8.2
2023-04-15T17:51:01.134Z,8.2
2023-04-15T17:55:01.029Z,8.3
2023-04-15T17:58:01.118Z,8.2
2023-04-15T17:59:01.070Z,8
2023-04-15T18:00:01.184Z,8.1
2023-04-15T18:02:01.022Z,8
2023-04-15T18:03:01.134Z,8.1
2023-04-15T18:10:01.000Z,8.2
2023-04-15T18:11:01.082Z,8
2023-04-15T18:13:01.144Z,8.1
2023-04-15T18:16:00.975Z,8.1
2023-04-15T18:17:01.265Z,8
2023-04-15T18:19:01.025Z,8.1
2023-04-15T18:21:01.093Z,8.1
2023-04-15T18:23:01.119Z,7.8
2023-04-15T18:24:01.119Z,7.9
2023-04-15T18:26:01.039Z,7.8
2023-04-15T18:27:01.043Z,8.1
2023-04-15T18:29:01.040Z,7.8
2023-04-15T18:31:01.104Z,7.9
2023-04-15T18:34:00.981Z,7.7
2023-04-15T18:35:01.106Z,7.6
2023-04-15T18:36:01.125Z,7.8
2023-04-15T18:37:01.141Z,7.9
2023-04-15T18:39:01.161Z,7.7
2023-04-15T18:41:01.073Z,7.7
2023-04-15T18:44:01.003Z,7.7
2023-04-15T18:45:01.190Z,7.9
2023-04-15T18:48:01.025Z,7.8
2023-04-15T18:50:01.029Z,7.5
2023-04-15T18:51:01.075Z,7.7
2023-04-15T18:53:01.079Z,7.6
2023-04-15T18:58:03.982Z,7.8
2023-04-15T19:00:01.237Z,7.8
2023-04-15T19:04:00.969Z,7.6
2023-04-15T19:05:01.057Z,7.7
2023-04-15T19:08:00.947Z,7.7
2023-04-15T19:12:00.987Z,7.6
2023-04-15T19:15:01.363Z,7.7
2023-04-15T19:17:01.287Z,7.6
2023-04-15T19:19:01.017Z,7.7
2023-04-15T19:21:01.093Z,7.5
2023-04-15T19:24:00.965Z,7.7
2023-04-15T19:25:01.067Z,7.6
2023-04-15T19:27:01.018Z,7.6
2023-04-15T19:29:01.073Z,7.8
2023-04-15T19:30:01.171Z,7.7
2023-04-15T19:32:00.949Z,7.7
2023-04-15T19:34:00.971Z,7.8
2023-04-15T19:38:01.031Z,7.7
2023-04-15T19:39:01.122Z,7.6
2023-04-15T19:43:01.061Z,7.6
2023-04-15T19:45:01.122Z,7.7
2023-04-15T19:48:00.973Z,7.7
2023-04-15T19:49:01.050Z,7.8
2023-04-15T19:51:01.036Z,7.8
2023-04-15T19:53:01.105Z,7.6
2023-04-15T19:55:01.051Z,7.7
2023-04-15T20:14:00.985Z,7.6
2023-04-15T20:28:01.286Z,7.6
2023-04-15T20:30:01.114Z,7.8
2023-04-15T20:32:00.995Z,7.7
2023-04-15T20:34:01.003Z,7.7
2023-04-15T20:36:01.076Z,7.7
2023-04-15T20:38:01.038Z,7.9
2023-04-15T20:39:01.141Z,7.6
2023-04-15T20:41:00.977Z,7.8
2023-04-15T20:42:00.986Z,7.7
2023-04-15T20:47:00.995Z,7.7
2023-04-15T20:48:01.076Z,7.6
2023-04-15T20:51:00.987Z,7.5
2023-04-15T20:53:00.959Z,7.6
2023-04-15T20:56:00.915Z,7.6
2023-04-15T20:59:00.966Z,7.7
2023-04-15T21:00:00.968Z,7.5
2023-04-15T21:02:01.000Z,7.6
2023-04-15T21:03:01.113Z,7.7
2023-04-15T21:05:00.958Z,7.8
2023-04-15T21:06:00.967Z,7.6
2023-04-15T21:09:00.960Z,7.8
2023-04-15T21:10:00.976Z,7.7
2023-04-15T21:12:01.826Z,7.7
2023-04-15T21:14:00.949Z,7.6
2023-04-15T21:16:01.012Z,7.5
2023-04-15T21:17:00.982Z,7.6
2023-04-15T21:23:00.997Z,7.5
2023-04-15T21:27:00.934Z,7.6
2023-04-15T21:30:01.132Z,7.4
2023-04-15T21:32:00.967Z,7.5
2023-04-15T21:33:01.050Z,7.6
2023-04-15T21:37:01.012Z,7.7
2023-04-15T21:38:00.978Z,7.5
2023-04-15T21:41:00.960Z,7.5
2023-04-15T21:48:06.652Z,7.6
2023-04-15T21:50:00.951Z,7.6
2023-04-15T21:51:00.961Z,7.5
2023-04-15T21:53:01.018Z,7.5
2023-04-15T21:57:01.003Z,7.6
2023-04-15T21:59:00.964Z,7.4
2023-04-15T22:01:00.995Z,7.6
2023-04-15T22:04:01.183Z,7.4
2023-04-15T22:05:01.056Z,7.6
2023-04-15T22:09:01.287Z,7.6
2023-04-15T22:13:00.969Z,7.6
2023-04-15T22:15:01.090Z,7.6
2023-04-15T22:18:00.974Z,7.6
2023-04-15T22:20:00.994Z,7.6
2023-04-15T22:22:00.962Z,7.4
2023-04-15T22:23:00.933Z,7.5
2023-04-15T22:24:32.394Z,7.7
2023-04-15T22:25:00.958Z,7.5
2023-04-15T22:26:00.977Z,7.6
2023-04-15T22:28:00.959Z,7.6
2023-04-15T22:29:00.953Z,7.7
2023-04-15T22:31:00.959Z,7.6
2023-04-15T22:33:01.026Z,7.6
2023-04-15T22:37:00.946Z,7.5
2023-04-15T22:41:00.955Z,7.7
2023-04-15T22:43:00.959Z,7.6
2023-04-15T22:45:01.000Z,7.7
2023-04-15T22:51:00.995Z,7.7
2023-04-15T22:53:00.962Z,7.7
2023-04-15T22:55:00.951Z,7.5
2023-04-15T22:58:01.007Z,7.7
2023-04-15T23:00:01.030Z,7.7
2023-04-15T23:02:00.992Z,7.7
2023-04-15T23:03:01.261Z,7.5
2023-04-15T23:05:01.618Z,7.5
2023-04-15T23:06:00.987Z,7.6
2023-04-15T23:07:01.024Z,7.7
2023-04-15T23:09:01.154Z,7.7
2023-04-15T23:11:01.053Z,7.6
2023-04-15T23:14:00.978Z,7.6
2023-04-15T23:16:01.087Z,7.7
2023-04-15T23:18:01.024Z,7.5
2023-04-15T23:20:00.989Z,7.7
2023-04-15T23:22:00.936Z,7.6
2023-04-15T23:24:01.071Z,7.7
2023-04-15T23:27:01.099Z,7.7
2023-04-15T23:31:01.092Z,7.6
2023-04-15T23:33:01.176Z,7.5
2023-04-15T23:34:01.142Z,7.6
2023-04-15T23:40:00.935Z,7.7
2023-04-15T23:41:01.301Z,7.6
2023-04-15T23:43:01.007Z,7.7
2023-04-15T23:45:01.154Z,7.6
2023-04-15T23:49:01.013Z,7.4
2023-04-15T23:53:00.955Z,7.8
2023-04-15T23:55:00.953Z,7.5
2023-04-15T23:57:00.950Z,7.6
